Time;durP1;ratioP1;P1;durP2;ratioP2;P2;SDS_P1;SDS_P2;PMS_P1;PMS_P2;Temp;Humidity;BMP_temperature;BMP_pressure;BME280_temperature;BME280_humidity;BME280_pressure;Samples;Min_cycle;Max_cycle;Signal;HPM_P1;HPM_P2
2023/07/24 00:00:08;;;;;;;;;;;;;;;17.04;67.05;99345.38;5014778;28;1711;-94
2023/07/24 00:02:35;;;;;;;;;;;;;;;17.03;67.14;99346.47;5006625;28;1426;-94
2023/07/24 00:05:02;;;;;;;;;;;;;;;17.02;67.06;99340.22;5008504;28;1287;-94
2023/07/24 00:07:30;;;;;;;;;;;;;;;17.01;67.10;99344.03;5010513;28;1903;-95
2023/07/24 00:09:58;;;;;;;;;;;;;;;17.01;67.06;99335.88;5008931;28;1261;-94
2023/07/24 00:12:25;;;;;;;;;;;;;;;17.00;67.13;99342.44;5007371;28;1245;-95
2023/07/24 00:14:51;;;;;;;;;;;;;;;17.00;67.07;99331.56;5007546;28;1293;-95
2023/07/24 00:17:18;;;;;;;;;;;;;;;16.99;67.02;99332.63;5007538;28;1406;-94
2023/07/24 00:19:45;;;;;;;;;;;;;;;16.98;66.92;99316.63;5007801;28;1230;-94
2023/07/24 00:22:12;;;;;;;;;;;;;;;16.97;66.87;99318.53;5007508;28;1571;-94
2023/07/24 00:24:39;;;;;;;;;;;;;;;16.96;66.98;99326.97;5024342;28;1307;-94
2023/07/24 00:27:06;;;;;;;;;;;;;;;16.95;66.87;99326.16;5011726;28;1974;-94
2023/07/24 00:29:34;;;;;;;;;;;;;;;16.95;67.10;99322.66;4999348;28;1323;-96
2023/07/24 00:32:01;;;;;;;;;;;;;;;16.95;66.76;99311.75;5007503;28;1470;-95
2023/07/24 00:34:28;;;;;;;;;;;;;;;16.93;66.95;99313.97;5007274;28;1249;-95
2023/07/24 00:36:54;;;;;;;;;;;;;;;16.93;66.91;99311.25;5008427;28;1356;-96
2023/07/24 00:39:23;;;;;;;;;;;;;;;16.92;66.83;99318.59;5008831;28;1333;-95
2023/07/24 00:41:50;;;;;;;;;;;;;;;16.91;66.88;99311.56;5009843;28;1177;-95
2023/07/24 00:44:17;;;;;;;;;;;;;;;16.90;66.77;99314.53;5010485;28;1390;-94
2023/07/24 00:46:44;;;;;;;;;;;;;;;16.90;66.85;99312.63;5010184;28;1903;-94
2023/07/24 00:49:11;;;;;;;;;;;;;;;16.89;66.89;99312.94;5009551;28;1253;-94
2023/07/24 00:51:38;;;;;;;;;;;;;;;16.88;66.77;99303.94;5009486;28;1301;-95
2023/07/24 00:54:06;;;;;;;;;;;;;;;16.87;66.83;99304.25;5009048;28;1402;-94
2023/07/24 00:56:34;;;;;;;;;;;;;;;16.86;66.73;99314.31;5009844;28;1499;-95
2023/07/24 00:59:01;;;;;;;;;;;;;;;16.86;66.65;99302.66;5009333;28;1277;-94
2023/07/24 01:01:28;;;;;;;;;;;;;;;16.86;66.68;99310.81;5008859;28;1373;-96
2023/07/24 01:03:58;;;;;;;;;;;;;;;16.85;66.69;99306.44;5009059;28;1329;-95
2023/07/24 01:06:26;;;;;;;;;;;;;;;16.83;66.54;99295.06;5008551;28;1918;-95
2023/07/24 01:08:53;;;;;;;;;;;;;;;16.82;66.72;99304.31;5008716;28;1282;-93
2023/07/24 01:11:20;;;;;;;;;;;;;;;16.81;66.69;99295.34;5007862;28;1443;-94
2023/07/24 01:13:46;;;;;;;;;;;;;;;16.83;66.69;99295.06;5007122;28;1324;-94
2023/07/24 01:16:13;;;;;;;;;;;;;;;16.79;66.65;99290.22;5008427;28;1517;-94
2023/07/24 01:18:40;;;;;;;;;;;;;;;16.78;66.64;99283.13;5007439;28;1656;-93
2023/07/24 01:21:07;;;;;;;;;;;;;;;16.78;66.55;99279.63;5016844;28;1210;-94
2023/07/24 01:23:39;;;;;;;;;;;;;;;16.76;66.66;99285.34;5011438;28;1210;-93
2023/07/24 01:26:06;;;;;;;;;;;;;;;16.76;66.54;99279.09;5016800;28;1965;-93
2023/07/24 01:28:34;;;;;;;;;;;;;;;16.75;66.65;99280.97;5006364;28;1505;-94
2023/07/24 01:31:00;;;;;;;;;;;;;;;16.72;66.60;99281.56;5002353;28;1185;-93
2023/07/24 01:36:11;;;;;;;;;;;;;;;16.71;66.53;99279.94;4997501;28;1326;-96
2023/07/24 01:38:39;;;;;;;;;;;;;;;16.73;66.41;99288.59;5007130;28;1375;-95
2023/07/24 01:41:06;;;;;;;;;;;;;;;16.70;66.48;99291.09;4996583;28;1618;-95
2023/07/24 01:43:33;;;;;;;;;;;;;;;16.69;66.42;99281.34;5004833;28;1386;-94
2023/07/24 01:45:59;;;;;;;;;;;;;;;16.68;66.42;99275.09;5006345;28;1961;-94
2023/07/24 01:48:26;;;;;;;;;;;;;;;16.67;66.54;99272.66;5023790;28;1231;-94
2023/07/24 01:50:53;;;;;;;;;;;;;;;16.69;66.27;99271.28;5012083;28;1372;-95
2023/07/24 01:53:20;;;;;;;;;;;;;;;16.66;66.44;99271.84;5008376;28;1304;-94
2023/07/24 01:55:47;;;;;;;;;;;;;;;16.65;66.39;99269.41;5007159;28;1287;-95
2023/07/24 01:58:14;;;;;;;;;;;;;;;16.70;66.16;99266.63;5023443;28;1626;-94
2023/07/24 02:00:40;;;;;;;;;;;;;;;16.73;66.07;99260.63;5007586;28;1202;-94
2023/07/24 02:03:07;;;;;;;;;;;;;;;16.72;66.06;99262.53;5006366;28;1241;-95
2023/07/24 02:05:35;;;;;;;;;;;;;;;16.74;65.89;99254.91;5006380;28;1533;-94
2023/07/24 02:08:02;;;;;;;;;;;;;;;16.71;66.01;99260.13;5018774;28;1981;-94
2023/07/24 02:10:29;;;;;;;;;;;;;;;16.73;65.84;99255.97;5005036;28;1493;-95
2023/07/24 02:12:55;;;;;;;;;;;;;;;16.73;65.62;99250.53;5013232;28;1455;-95
2023/07/24 02:15:23;;;;;;;;;;;;;;;16.79;65.52;99251.31;5009487;28;1406;-95
2023/07/24 02:17:50;;;;;;;;;;;;;;;16.90;65.13;99252.81;5014851;28;1337;-94
2023/07/24 02:20:17;;;;;;;;;;;;;;;16.99;64.69;99253.75;5007164;28;1656;-94
2023/07/24 02:22:43;;;;;;;;;;;;;;;17.15;63.96;99248.13;5003184;28;1619;-95
2023/07/24 02:25:10;;;;;;;;;;;;;;;17.26;63.64;99246.84;5006724;28;1636;-95
2023/07/24 02:27:37;;;;;;;;;;;;;;;16.99;64.27;99251.03;5007772;28;1906;-95
2023/07/24 02:30:04;;;;;;;;;;;;;;;16.87;64.82;99244.44;5014267;28;2158;-95
2023/07/24 02:32:32;;;;;;;;;;;;;;;17.02;64.29;99242.28;5006519;28;1862;-95
2023/07/24 02:34:58;;;;;;;;;;;;;;;17.21;63.72;99250.47;5023970;28;1327;-95
2023/07/24 02:37:25;;;;;;;;;;;;;;;17.03;64.20;99245.84;5027634;28;1274;-93
2023/07/24 02:39:52;;;;;;;;;;;;;;;17.21;63.51;99244.22;5030190;28;1567;-94
2023/07/24 02:42:19;;;;;;;;;;;;;;;17.33;62.95;99257.38;5013500;28;1532;-94
2023/07/24 02:44:46;;;;;;;;;;;;;;;17.22;63.46;99245.84;5015126;28;1561;-94
2023/07/24 02:47:13;;;;;;;;;;;;;;;17.45;62.50;99249.56;5004511;28;1918;-94
2023/07/24 02:49:39;;;;;;;;;;;;;;;17.30;62.92;99249.81;5004925;28;1550;-95
2023/07/24 02:52:06;;;;;;;;;;;;;;;17.41;62.52;99246.63;5004613;28;1587;-95
2023/07/24 02:54:34;;;;;;;;;;;;;;;17.28;62.76;99235.69;5021665;28;1667;-94
2023/07/24 02:57:02;;;;;;;;;;;;;;;17.30;62.76;99241.66;5004420;28;1994;-94
2023/07/24 02:59:29;;;;;;;;;;;;;;;17.18;63.03;99237.47;4993927;28;1844;-95
2023/07/24 03:01:56;;;;;;;;;;;;;;;17.24;63.02;99243.63;5009997;28;1813;-94
2023/07/24 03:04:22;;;;;;;;;;;;;;;17.31;62.68;99241.34;5011575;28;1639;-95
2023/07/24 03:06:49;;;;;;;;;;;;;;;17.34;62.54;99245.38;5008212;28;1958;-95
2023/07/24 03:09:16;;;;;;;;;;;;;;;17.35;62.51;99244.25;5010258;28;1553;-94
2023/07/24 03:11:43;;;;;;;;;;;;;;;17.39;62.23;99242.59;5005454;28;1512;-94
2023/07/24 03:14:10;;;;;;;;;;;;;;;17.26;62.65;99235.97;5005703;28;1691;-94
2023/07/24 03:16:37;;;;;;;;;;;;;;;17.16;62.86;99236.94;5004464;28;1670;-95
2023/07/24 03:19:04;;;;;;;;;;;;;;;17.19;62.75;99235.53;5022524;28;1377;-94
2023/07/24 03:21:31;;;;;;;;;;;;;;;17.38;62.07;99235.50;5021924;28;1233;-95
2023/07/24 03:23:58;;;;;;;;;;;;;;;17.46;61.91;99230.19;5021141;28;1547;-94
2023/07/24 03:26:24;;;;;;;;;;;;;;;17.31;62.35;99235.09;5005062;28;1891;-94
2023/07/24 03:28:51;;;;;;;;;;;;;;;17.22;62.40;99233.03;5006777;28;1840;-95
2023/07/24 03:31:18;;;;;;;;;;;;;;;17.33;62.21;99224.72;5023662;28;1221;-95
2023/07/24 03:33:45;;;;;;;;;;;;;;;17.37;61.78;99223.81;5008344;28;1344;-94
2023/07/24 03:36:12;;;;;;;;;;;;;;;17.41;62.08;99226.75;5007009;28;1416;-94
2023/07/24 03:38:39;;;;;;;;;;;;;;;17.50;61.46;99230.44;5007129;28;1303;-94
2023/07/24 03:41:06;;;;;;;;;;;;;;;17.30;62.12;99228.84;5007050;28;1233;-95
2023/07/24 03:43:32;;;;;;;;;;;;;;;17.15;62.43;99223.66;5006926;28;1281;-94
2023/07/24 03:45:59;;;;;;;;;;;;;;;17.27;62.18;99225.91;5008196;28;1545;-95
2023/07/24 03:48:26;;;;;;;;;;;;;;;17.18;62.28;99223.06;5006483;28;1883;-95
2023/07/24 03:50:53;;;;;;;;;;;;;;;17.17;62.17;99219.50;5023763;28;1234;-95
2023/07/24 03:53:20;;;;;;;;;;;;;;;17.20;62.19;99223.53;5017275;28;1425;-95
2023/07/24 03:55:47;;;;;;;;;;;;;;;17.18;62.21;99220.34;5020991;28;1326;-94
2023/07/24 03:58:14;;;;;;;;;;;;;;;17.18;62.25;99218.41;5017822;28;1331;-94
2023/07/24 04:00:40;;;;;;;;;;;;;;;17.07;62.62;99221.59;5019064;28;1315;-95
2023/07/24 04:03:07;;;;;;;;;;;;;;;16.99;62.91;99212.16;5019761;28;1233;-96
2023/07/24 04:05:34;;;;;;;;;;;;;;;16.94;62.71;99213.06;5016090;28;1534;-95
2023/07/24 04:08:01;;;;;;;;;;;;;;;16.80;63.36;99212.97;5026494;28;1957;-95
2023/07/24 04:10:28;;;;;;;;;;;;;;;17.06;62.56;99211.78;5007776;28;1741;-94
2023/07/24 04:12:56;;;;;;;;;;;;;;;16.97;62.89;99217.09;5009062;28;1411;-94
2023/07/24 04:15:48;;;;;;;;;;;;;;;17.01;62.65;99218.13;5031217;28;1489;-93
2023/07/24 04:18:35;;;;;;;;;;;;;;;16.88;62.82;99214.22;5023261;28;1210;-94
2023/07/24 04:21:16;;;;;;;;;;;;;;;16.83;62.93;99213.50;5003912;28;1446;-94
2023/07/24 04:24:08;;;;;;;;;;;;;;;16.89;63.08;99210.41;5022891;28;1283;-95
2023/07/24 04:27:00;;;;;;;;;;;;;;;16.84;62.95;99215.91;5023280;28;1883;-93
2023/07/24 04:29:53;;;;;;;;;;;;;;;16.82;63.00;99212.66;5023535;28;1281;-93
2023/07/24 04:32:45;;;;;;;;;;;;;;;17.01;62.51;99209.97;5023869;28;1520;-93
2023/07/24 04:35:37;;;;;;;;;;;;;;;16.78;63.10;99201.59;5012930;28;1279;-93
2023/07/24 04:38:29;;;;;;;;;;;;;;;16.82;62.80;99207.22;5011019;28;1068;-94
2023/07/24 04:41:21;;;;;;;;;;;;;;;16.87;62.98;99215.31;5026335;28;1194;-95
2023/07/24 04:44:13;;;;;;;;;;;;;;;16.81;62.90;99202.91;5026861;28;711;-95
2023/07/24 04:47:05;;;;;;;;;;;;;;;16.74;63.01;99199.72;5012694;28;1966;-94
2023/07/24 04:49:57;;;;;;;;;;;;;;;16.64;63.52;99206.09;5025991;28;1078;-95
2023/07/24 04:52:51;;;;;;;;;;;;;;;16.56;63.53;99204.84;5039972;28;1533;-95
2023/07/24 04:55:42;;;;;;;;;;;;;;;16.95;62.10;99198.34;5026318;28;1000;-94
2023/07/24 04:58:29;;;;;;;;;;;;;;;16.87;62.32;99203.66;5021698;28;1520;-94
2023/07/24 05:01:16;;;;;;;;;;;;;;;16.89;62.31;99196.81;5021666;28;2346;-94
2023/07/24 05:04:04;;;;;;;;;;;;;;;16.70;63.15;99191.31;5019503;28;1553;-94
2023/07/24 05:06:50;;;;;;;;;;;;;;;16.75;62.66;99198.63;5017273;28;1959;-94
2023/07/24 05:09:17;;;;;;;;;;;;;;;16.72;62.81;99194.56;5003433;28;1419;-94
2023/07/24 05:11:44;;;;;;;;;;;;;;;16.67;62.99;99194.63;5003836;28;2231;-93
2023/07/24 05:14:11;;;;;;;;;;;;;;;16.94;62.01;99199.47;5004841;28;1335;-92
2023/07/24 05:16:38;;;;;;;;;;;;;;;16.92;62.13;99196.22;5018094;28;1323;-93
2023/07/24 05:19:05;;;;;;;;;;;;;;;16.89;62.13;99196.00;5008488;28;2582;-93
2023/07/24 05:21:31;;;;;;;;;;;;;;;16.86;62.13;99189.25;5002441;28;1333;-94
2023/07/24 05:23:58;;;;;;;;;;;;;;;16.80;62.29;99196.66;5000751;28;1694;-93
2023/07/24 05:26:25;;;;;;;;;;;;;;;16.78;62.59;99185.28;4998773;28;2303;-93
2023/07/24 05:28:52;;;;;;;;;;;;;;;16.80;62.24;99187.72;4988304;28;1991;-93
2023/07/24 05:31:19;;;;;;;;;;;;;;;16.87;61.97;99182.69;5004443;28;1434;-95
2023/07/24 05:33:46;;;;;;;;;;;;;;;16.66;62.66;99184.06;5011006;28;1813;-93
2023/07/24 05:36:12;;;;;;;;;;;;;;;16.92;61.66;99177.19;5000655;28;1496;-93
2023/07/24 05:38:39;;;;;;;;;;;;;;;16.85;62.01;99181.38;4999334;28;1335;-93
2023/07/24 05:41:06;;;;;;;;;;;;;;;16.86;62.05;99174.84;5000715;28;1803;-93
2023/07/24 05:43:34;;;;;;;;;;;;;;;16.89;61.98;99179.69;5019370;28;1727;-93
2023/07/24 05:46:03;;;;;;;;;;;;;;;16.75;62.26;99187.75;5004255;28;1818;-93
2023/07/24 05:48:30;;;;;;;;;;;;;;;16.94;61.48;99175.00;4998540;28;1906;-94
2023/07/24 05:50:57;;;;;;;;;;;;;;;16.92;61.59;99181.81;5015444;28;1318;-95
2023/07/24 05:53:24;;;;;;;;;;;;;;;16.96;61.57;99170.03;5017626;28;1288;-94
2023/07/24 05:55:51;;;;;;;;;;;;;;;16.96;61.55;99172.75;5018412;28;919;-93
2023/07/24 05:58:17;;;;;;;;;;;;;;;16.99;61.27;99179.53;5003785;28;1845;-93
2023/07/24 06:00:44;;;;;;;;;;;;;;;16.87;61.66;99171.81;4998673;28;1608;-93
2023/07/24 06:03:11;;;;;;;;;;;;;;;17.12;60.88;99165.19;4999404;28;2010;-95
2023/07/24 06:05:39;;;;;;;;;;;;;;;17.12;60.90;99161.66;5001344;28;1373;-94
2023/07/24 06:08:08;;;;;;;;;;;;;;;17.02;61.08;99166.13;5002431;28;1914;-94
2023/07/24 06:10:35;;;;;;;;;;;;;;;16.99;61.05;99164.00;5001177;28;1382;-93
2023/07/24 06:13:03;;;;;;;;;;;;;;;17.05;60.99;99164.75;5002621;28;1449;-94
2023/07/24 06:15:29;;;;;;;;;;;;;;;17.16;60.44;99155.31;5001670;28;1390;-94
2023/07/24 06:17:56;;;;;;;;;;;;;;;17.09;60.88;99167.69;5004354;28;1452;-93
2023/07/24 06:20:25;;;;;;;;;;;;;;;16.76;61.64;99156.75;5006421;28;1632;-94
2023/07/24 06:25:35;;;;;;;;;;;;;;;17.00;60.90;99162.94;5007796;28;913;-95
2023/07/24 06:28:02;;;;;;;;;;;;;;;16.77;61.64;99166.53;5009722;28;1891;-96
2023/07/24 06:44:09;;;;;;;;;;;;;;;16.65;62.27;99157.97;5013370;28;1309;-95
2023/07/24 06:46:36;;;;;;;;;;;;;;;16.57;62.25;99152.09;5009567;28;1654;-93
2023/07/24 06:49:03;;;;;;;;;;;;;;;16.64;61.96;99149.00;4990541;28;1922;-93
2023/07/24 06:51:29;;;;;;;;;;;;;;;16.53;62.51;99150.25;5005198;28;1335;-94
2023/07/24 06:53:57;;;;;;;;;;;;;;;16.27;63.21;99150.59;5007225;28;1308;-94
2023/07/24 06:56:24;;;;;;;;;;;;;;;16.26;63.36;99146.25;4990471;28;1238;-93
2023/07/24 06:58:53;;;;;;;;;;;;;;;16.56;62.40;99145.06;5007484;28;1703;-94
2023/07/24 07:01:23;;;;;;;;;;;;;;;16.39;62.98;99136.59;5009523;28;1865;-94
2023/07/24 07:06:35;;;;;;;;;;;;;;;16.38;63.01;99132.25;5014631;28;1226;-95
2023/07/24 07:09:02;;;;;;;;;;;;;;;16.32;63.16;99131.53;5027169;28;1947;-95
2023/07/24 07:11:32;;;;;;;;;;;;;;;16.22;63.54;99125.41;5013216;28;1300;-94
2023/07/24 07:13:59;;;;;;;;;;;;;;;16.24;63.45;99121.31;5033274;28;1388;-95
2023/07/24 07:16:29;;;;;;;;;;;;;;;16.22;63.53;99130.84;5018124;28;1426;-95
2023/07/24 07:18:58;;;;;;;;;;;;;;;16.15;63.87;99123.06;5020084;28;1350;-96
2023/07/24 07:21:24;;;;;;;;;;;;;;;16.10;63.96;99132.06;5014880;28;1347;-94
2023/07/24 07:23:51;;;;;;;;;;;;;;;16.07;64.04;99123.69;5005545;28;1400;-95
2023/07/24 07:26:18;;;;;;;;;;;;;;;16.06;64.05;99125.59;4996310;28;1208;-95
2023/07/24 07:28:46;;;;;;;;;;;;;;;16.05;64.22;99125.88;4995118;28;1898;-95
2023/07/24 07:31:13;;;;;;;;;;;;;;;16.05;64.22;99118.53;4994264;28;1328;-94
2023/07/24 07:33:40;;;;;;;;;;;;;;;16.04;64.18;99114.22;4994618;28;988;-95
2023/07/24 07:36:07;;;;;;;;;;;;;;;16.06;64.09;99116.63;4994470;28;1273;-95
2023/07/24 07:38:34;;;;;;;;;;;;;;;16.05;64.23;99121.25;5008484;28;1291;-95
2023/07/24 07:41:01;;;;;;;;;;;;;;;16.06;64.18;99120.19;4994064;28;1289;-95
2023/07/24 07:43:27;;;;;;;;;;;;;;;16.06;64.10;99117.47;5006749;28;1961;-95
2023/07/24 07:45:59;;;;;;;;;;;;;;;16.06;64.07;99119.34;4994971;28;1320;-96
2023/07/24 07:48:25;;;;;;;;;;;;;;;16.05;64.11;99110.41;4995057;28;1958;-94
2023/07/24 07:50:52;;;;;;;;;;;;;;;16.06;64.09;99108.47;4992856;28;1299;-94
2023/07/24 07:53:19;;;;;;;;;;;;;;;16.06;64.03;99112.03;4991268;28;1367;-94
2023/07/24 07:55:48;;;;;;;;;;;;;;;16.06;64.05;99109.31;5003714;28;1210;-93
2023/07/24 07:58:14;;;;;;;;;;;;;;;16.07;64.02;99104.69;5005959;28;1316;-93
2023/07/24 08:00:41;;;;;;;;;;;;;;;16.07;64.09;99096.53;5018641;28;1345;-95
2023/07/24 08:03:18;;;;;;;;;;;;;;;16.07;64.06;99093.81;4996387;28;1486;-95
2023/07/24 08:05:45;;;;;;;;;;;;;;;16.08;64.10;99093.53;4983424;28;1314;-95
2023/07/24 08:08:16;;;;;;;;;;;;;;;16.08;64.01;99101.66;4986311;28;1956;-94
2023/07/24 08:10:55;;;;;;;;;;;;;;;16.09;64.00;99103.31;5006214;28;1557;-95
2023/07/24 08:13:47;;;;;;;;;;;;;;;16.11;63.98;99094.84;5006449;28;1332;-93
2023/07/24 08:16:20;;;;;;;;;;;;;;;16.11;63.96;99097.56;5005035;28;1834;-95
2023/07/24 08:18:47;;;;;;;;;;;;;;;16.11;64.07;99094.84;5018335;28;1476;-95
2023/07/24 08:21:18;;;;;;;;;;;;;;;16.12;64.07;99097.28;5026735;28;1435;-95
2023/07/24 08:23:47;;;;;;;;;;;;;;;16.11;64.02;99095.66;5008906;28;1536;-95
2023/07/24 08:26:14;;;;;;;;;;;;;;;16.12;64.08;99091.84;5024461;28;1187;-95
2023/07/24 08:28:46;;;;;;;;;;;;;;;16.12;64.05;99093.78;5011924;28;1951;-94
2023/07/24 08:31:25;;;;;;;;;;;;;;;16.14;63.99;99086.13;5000369;28;1404;-94
2023/07/24 08:33:52;;;;;;;;;;;;;;;16.14;64.03;99083.41;5047182;28;1201;-94
2023/07/24 08:36:19;;;;;;;;;;;;;;;16.13;64.02;99082.59;5012329;28;1369;-94
2023/07/24 08:38:59;;;;;;;;;;;;;;;16.15;64.07;99084.19;5011815;28;1619;-93
2023/07/24 08:41:25;;;;;;;;;;;;;;;16.17;63.99;99079.28;5008522;28;1707;-93
2023/07/24 08:43:56;;;;;;;;;;;;;;;16.15;64.04;99079.59;5007656;28;1123;-94
2023/07/24 08:46:23;;;;;;;;;;;;;;;16.16;63.96;99078.50;5010345;28;1668;-94
2023/07/24 08:48:51;;;;;;;;;;;;;;;16.17;63.89;99077.38;5002094;28;2017;-94
2023/07/24 08:51:21;;;;;;;;;;;;;;;16.19;63.95;99077.91;5005938;28;2012;-93
2023/07/24 08:53:48;;;;;;;;;;;;;;;16.20;63.97;99076.00;5010638;28;3668;-95
2023/07/24 08:56:15;;;;;;;;;;;;;;;16.20;63.96;99076.78;5013413;28;3542;-93
2023/07/24 08:58:43;;;;;;;;;;;;;;;16.22;63.98;99077.31;5016121;28;2173;-94
2023/07/24 09:01:11;;;;;;;;;;;;;;;16.21;63.89;99069.47;5010716;28;2747;-93
2023/07/24 09:03:38;;;;;;;;;;;;;;;16.23;63.94;99064.53;4995190;28;2189;-94
2023/07/24 09:06:17;;;;;;;;;;;;;;;16.24;63.87;99066.19;4996158;28;2290;-96
2023/07/24 09:08:43;;;;;;;;;;;;;;;16.26;63.88;99059.31;4997162;28;1972;-93
2023/07/24 09:11:16;;;;;;;;;;;;;;;16.26;63.86;99062.03;5014673;28;2205;-93
2023/07/24 09:13:42;;;;;;;;;;;;;;;16.28;63.86;99065.28;5001372;28;2508;-92
2023/07/24 09:16:09;;;;;;;;;;;;;;;16.29;63.88;99058.75;4995197;28;2268;-93
2023/07/24 09:18:36;;;;;;;;;;;;;;;16.30;63.82;99063.09;4995472;28;2248;-92
2023/07/24 09:21:03;;;;;;;;;;;;;;;16.32;63.80;99062.78;5003064;28;1907;-92
2023/07/24 09:23:30;;;;;;;;;;;;;;;16.32;63.69;99062.78;5006696;28;1197;-95
2023/07/24 09:25:59;;;;;;;;;;;;;;;16.31;63.69;99058.47;5005768;28;2356;-92
2023/07/24 09:28:38;;;;;;;;;;;;;;;16.34;63.68;99058.66;5009597;28;1952;-94
2023/07/24 09:31:18;;;;;;;;;;;;;;;16.32;63.82;99055.47;5007596;28;1339;-95
2023/07/24 09:33:45;;;;;;;;;;;;;;;16.33;63.75;99059.78;5012093;28;1316;-94
2023/07/24 09:36:13;;;;;;;;;;;;;;;16.29;63.92;99049.78;5013371;28;1295;-92
2023/07/24 09:38:46;;;;;;;;;;;;;;;16.30;63.92;99052.22;5017185;28;1192;-94
2023/07/24 09:41:14;;;;;;;;;;;;;;;16.35;63.71;99046.72;5002946;28;1321;-93
2023/07/24 09:43:41;;;;;;;;;;;;;;;16.36;63.66;99052.97;5001481;28;1580;-95
2023/07/24 09:46:08;;;;;;;;;;;;;;;16.36;63.79;99047.53;5008499;28;1216;-93
2023/07/24 09:48:35;;;;;;;;;;;;;;;16.35;63.90;99046.72;5008158;28;1988;-94
2023/07/24 09:51:11;;;;;;;;;;;;;;;16.31;63.89;99045.69;5009672;28;1629;-95
2023/07/24 09:53:39;;;;;;;;;;;;;;;16.45;63.60;99047.66;5012315;28;1928;-93
2023/07/24 09:56:08;;;;;;;;;;;;;;;16.50;63.30;99045.69;5027290;28;1241;-94
2023/07/24 09:58:35;;;;;;;;;;;;;;;16.50;63.36;99045.69;5025482;28;1217;-93
2023/07/24 10:01:02;;;;;;;;;;;;;;;16.48;63.37;99049.81;5027122;28;1137;-93
2023/07/24 10:03:33;;;;;;;;;;;;;;;16.46;63.47;99050.06;5008474;28;1651;-94
2023/07/24 10:05:59;;;;;;;;;;;;;;;16.45;63.63;99055.81;5012143;28;1160;-94
2023/07/24 10:08:27;;;;;;;;;;;;;;;16.44;63.67;99049.59;5011683;28;1914;-95
2023/07/24 10:10:54;;;;;;;;;;;;;;;16.44;63.67;99049.59;5010295;28;1258;-95
2023/07/24 10:13:20;;;;;;;;;;;;;;;16.43;63.77;99049.88;5011979;28;1242;-94
2023/07/24 10:15:47;;;;;;;;;;;;;;;16.42;63.81;99037.41;5006027;28;1274;-94
2023/07/24 10:18:16;;;;;;;;;;;;;;;16.43;63.75;99047.16;5005350;28;1281;-96
2023/07/24 10:20:44;;;;;;;;;;;;;;;16.43;63.88;99042.53;5007640;28;1192;-94
2023/07/24 10:23:10;;;;;;;;;;;;;;;16.43;63.86;99039.00;5007013;28;1203;-94
2023/07/24 10:25:40;;;;;;;;;;;;;;;16.42;63.88;99038.19;5005219;28;1307;-95
2023/07/24 10:28:10;;;;;;;;;;;;;;;16.42;63.85;99034.69;5020503;28;1950;-96
2023/07/24 10:47:14;;;;;;;;;;;;;;;16.59;63.51;99013.22;5031338;28;1128;-94
2023/07/24 10:52:48;;;;;;;;;;;;;;;16.56;63.69;99009.16;5025739;28;648;-94
2023/07/24 10:55:18;;;;;;;;;;;;;;;16.56;63.72;99017.31;5008141;28;1429;-93
2023/07/24 10:57:45;;;;;;;;;;;;;;;16.57;63.66;99021.66;5010088;28;1623;-93
2023/07/24 11:00:12;;;;;;;;;;;;;;;16.57;63.67;99015.41;5001419;28;1550;-93
2023/07/24 11:02:38;;;;;;;;;;;;;;;16.50;63.96;99009.53;5004124;28;1271;-92
2023/07/24 11:05:05;;;;;;;;;;;;;;;16.55;63.74;99006.75;5006143;28;1821;-93
2023/07/24 11:07:35;;;;;;;;;;;;;;;16.54;63.85;99005.94;4998320;28;2173;-92
2023/07/24 11:10:03;;;;;;;;;;;;;;;16.54;63.84;99003.22;4996950;28;2037;-94
2023/07/24 11:12:31;;;;;;;;;;;;;;;16.54;63.76;99005.13;4999696;28;1580;-94
2023/07/24 11:15:17;;;;;;;;;;;;;;;16.54;63.86;99005.13;5002730;28;2180;-94
2023/07/24 11:17:44;;;;;;;;;;;;;;;16.52;63.94;99008.13;4995880;28;2973;-93
2023/07/24 11:20:10;;;;;;;;;;;;;;;16.49;64.04;98995.13;4994823;28;1834;-93
2023/07/24 11:22:38;;;;;;;;;;;;;;;16.50;64.03;98998.66;5018378;28;2566;-92
2023/07/24 11:25:06;;;;;;;;;;;;;;;16.50;63.94;98995.94;5000056;28;2113;-93
2023/07/24 11:27:36;;;;;;;;;;;;;;;16.48;63.87;98993.53;5010095;28;2705;-92
2023/07/24 11:30:04;;;;;;;;;;;;;;;16.49;64.03;98989.69;5010076;28;3603;-92
2023/07/24 11:32:30;;;;;;;;;;;;;;;16.49;64.10;98988.91;5000480;28;3663;-94
2023/07/24 11:35:02;;;;;;;;;;;;;;;16.48;64.13;98990.03;5006212;28;3484;-92
2023/07/24 11:37:29;;;;;;;;;;;;;;;16.48;64.04;98990.81;5000083;28;2167;-93
2023/07/24 11:39:57;;;;;;;;;;;;;;;16.48;64.00;98990.03;5005289;28;4229;-93
2023/07/24 11:42:25;;;;;;;;;;;;;;;16.48;64.09;98984.59;5007051;28;2229;-93
2023/07/24 11:44:54;;;;;;;;;;;;;;;16.47;64.10;98983.78;4987399;28;3586;-93
2023/07/24 11:47:20;;;;;;;;;;;;;;;16.48;64.11;98984.59;5017528;28;4199;-93
2023/07/24 11:49:50;;;;;;;;;;;;;;;16.47;64.11;98974.78;5014319;28;4526;-94
2023/07/24 11:52:17;;;;;;;;;;;;;;;16.48;64.25;98979.16;5007613;28;2163;-93
2023/07/24 11:54:44;;;;;;;;;;;;;;;16.47;64.14;98974.78;5011637;28;3770;-94
2023/07/24 11:57:10;;;;;;;;;;;;;;;16.47;64.13;98966.66;4996449;28;3884;-93
2023/07/24 11:59:37;;;;;;;;;;;;;;;16.47;64.24;98963.94;5015241;28;2188;-93
2023/07/24 12:02:04;;;;;;;;;;;;;;;16.46;64.26;98956.88;5027610;28;3871;-94
2023/07/24 12:04:34;;;;;;;;;;;;;;;16.46;64.29;98957.69;5022426;28;2181;-92
2023/07/24 12:07:03;;;;;;;;;;;;;;;16.46;64.24;98959.59;5005269;28;3809;-93
2023/07/24 12:09:29;;;;;;;;;;;;;;;16.46;64.21;98956.88;5021635;28;3796;-94
2023/07/24 12:11:59;;;;;;;;;;;;;;;16.46;64.22;98965.03;5014036;28;3840;-94
2023/07/24 12:14:25;;;;;;;;;;;;;;;16.45;64.31;98961.53;5013214;28;2705;-93
2023/07/24 12:16:54;;;;;;;;;;;;;;;16.45;64.30;98958.81;5008266;28;2789;-92
2023/07/24 12:19:22;;;;;;;;;;;;;;;16.44;64.29;98961.81;4998487;28;3975;-93
2023/07/24 12:21:48;;;;;;;;;;;;;;;16.44;64.42;98950.94;5014846;28;2773;-93
2023/07/24 12:24:15;;;;;;;;;;;;;;;16.44;64.30;98946.34;5008765;28;2382;-93
2023/07/24 12:26:43;;;;;;;;;;;;;;;16.43;64.35;98944.69;4990716;28;3832;-92
2023/07/24 12:29:10;;;;;;;;;;;;;;;16.44;64.43;98942.78;4998693;28;4924;-93
2023/07/24 12:31:40;;;;;;;;;;;;;;;16.43;64.38;98933.03;5020256;28;2773;-92
2023/07/24 12:34:16;;;;;;;;;;;;;;;16.43;64.39;98936.56;5022184;28;2000;-92
2023/07/24 12:36:44;;;;;;;;;;;;;;;16.43;64.36;98927.59;5014669;28;3625;-91
2023/07/24 12:39:11;;;;;;;;;;;;;;;16.43;64.33;98930.31;4994023;28;3660;-91
2023/07/24 12:41:40;;;;;;;;;;;;;;;16.42;64.42;98929.50;5010566;28;3804;-93
2023/07/24 12:44:11;;;;;;;;;;;;;;;16.43;64.44;98919.44;4996739;28;3697;-94
2023/07/24 12:46:38;;;;;;;;;;;;;;;16.43;64.46;98922.97;5009385;28;3740;-91
2023/07/24 12:49:07;;;;;;;;;;;;;;;16.42;64.44;98924.09;5018286;28;3473;-94
2023/07/24 12:51:34;;;;;;;;;;;;;;;16.42;64.45;98915.94;5002300;28;2862;-93
2023/07/24 12:54:01;;;;;;;;;;;;;;;16.43;64.44;98919.44;5012460;28;3776;-92
2023/07/24 12:56:40;;;;;;;;;;;;;;;16.43;64.46;98909.38;5021448;28;3773;-92
2023/07/24 12:59:19;;;;;;;;;;;;;;;16.42;64.45;98910.50;5009694;28;2200;-93
2023/07/24 13:01:56;;;;;;;;;;;;;;;16.42;64.50;98910.50;5001543;28;3810;-93
2023/07/24 13:04:25;;;;;;;;;;;;;;;16.41;64.46;98910.78;5015839;28;2708;-93
2023/07/24 13:06:56;;;;;;;;;;;;;;;16.41;64.47;98906.16;5019554;28;2779;-93
2023/07/24 13:09:25;;;;;;;;;;;;;;;16.39;64.58;98892.06;4996405;28;3969;-93
2023/07/24 13:11:56;;;;;;;;;;;;;;;16.40;64.40;98890.16;5000935;28;2803;-92
2023/07/24 13:14:23;;;;;;;;;;;;;;;16.41;64.54;98895.28;4999052;28;2276;-92
2023/07/24 13:16:50;;;;;;;;;;;;;;;16.40;64.56;98887.44;5002606;28;2213;-94
2023/07/24 13:19:21;;;;;;;;;;;;;;;16.40;64.43;98890.16;5015123;28;3764;-93
2023/07/24 13:21:49;;;;;;;;;;;;;;;16.40;64.56;98879.28;5021344;28;2254;-94
2023/07/24 13:24:17;;;;;;;;;;;;;;;16.40;64.57;98887.44;5002297;28;2371;-92
2023/07/24 13:26:43;;;;;;;;;;;;;;;16.40;64.54;98882.81;4994547;28;2392;-92
2023/07/24 13:29:10;;;;;;;;;;;;;;;16.39;64.62;98881.22;5003162;28;3868;-92
2023/07/24 13:31:41;;;;;;;;;;;;;;;16.39;64.52;98873.06;4990829;28;2713;-92
2023/07/24 13:34:08;;;;;;;;;;;;;;;16.39;64.57;98873.06;5008722;28;2679;-92
2023/07/24 13:36:35;;;;;;;;;;;;;;;16.38;64.59;98874.16;5005071;28;3744;-92
2023/07/24 13:39:02;;;;;;;;;;;;;;;16.39;64.55;98870.34;4975352;28;1993;-92
2023/07/24 13:41:29;;;;;;;;;;;;;;;16.40;64.49;98865.72;5002658;28;2181;-93
2023/07/24 13:43:58;;;;;;;;;;;;;;;16.40;64.57;98873.84;4991555;28;2292;-92
2023/07/24 13:46:25;;;;;;;;;;;;;;;16.40;64.62;98869.22;4999508;28;3875;-92
2023/07/24 13:48:52;;;;;;;;;;;;;;;16.39;64.56;98869.53;4996710;28;4144;-92